Time,TemperatureF,DewpointF,PressureIn,WindDirection,WindDirectionDegrees,WindSpeedMPH,WindSpeedGustMPH,Humidity,HourlyPrecipIn,Conditions,Clouds,dailyrainin,SoftwareType,DateUTC
2013-03-25 00:03:00,30.0,-99.9,-100.00,NNW,334,10.0,14.0,-999,0.00,,,0.13,,2013-03-25 05:03:00,
2013-03-25 00:12:00,30.0,-99.9,-100.00,NNW,343,8.0,12.0,-999,0.00,,,0.13,,2013-03-25 05:12:00,
2013-03-25 00:22:00,30.0,-99.9,-100.00,NNW,343,8.0,12.0,-999,0.00,,,0.13,,2013-03-25 05:22:00,
2013-03-25 00:33:00,30.0,-99.9,-100.00,NNW,343,8.0,12.0,-999,0.00,,,0.13,,2013-03-25 05:33:00,
2013-03-25 00:43:00,30.0,-99.9,-100.00,NNW,333,9.0,13.0,-999,0.00,,,0.13,,2013-03-25 05:43:00,
2013-03-25 00:53:00,30.0,-99.9,-100.00,NNW,333,9.0,13.0,-999,0.00,,,0.13,,2013-03-25 05:53:00,
2013-03-25 01:02:00,30.0,-99.9,-100.00,NNW,333,9.0,13.0,-999,0.00,,,0.13,,2013-03-25 06:02:00,
2013-03-25 01:12:00,30.0,-99.9,-100.00,NNW,334,10.0,17.0,-999,0.00,,,0.13,,2013-03-25 06:12:00,
2013-03-25 01:22:00,30.0,-99.9,-100.00,NNW,334,10.0,17.0,-999,0.00,,,0.13,,2013-03-25 06:22:00,
2013-03-25 01:33:00,30.0,-99.9,-100.00,NNW,334,10.0,17.0,-999,0.00,,,0.13,,2013-03-25 06:33:00,
2013-03-25 01:43:00,30.0,-99.9,-100.00,NNW,333,10.0,13.0,-999,0.00,,,0.13,,2013-03-25 06:43:00,
2013-03-25 01:53:00,30.0,-99.9,-100.00,NNW,333,10.0,13.0,-999,0.00,,,0.13,,2013-03-25 06:53:00,
2013-03-25 02:02:00,30.0,-99.9,-100.00,NNW,333,10.0,13.0,-999,0.00,,,0.13,,2013-03-25 07:02:00,
2013-03-25 02:13:00,30.0,-99.9,-100.00,NNW,337,11.0,15.0,-999,0.00,,,0.13,,2013-03-25 07:13:00,
2013-03-25 02:22:00,30.0,-99.9,-100.00,NNW,337,11.0,15.0,-999,0.00,,,0.13,,2013-03-25 07:22:00,
2013-03-25 02:32:00,30.0,-99.9,-100.00,NNW,337,11.0,15.0,-999,0.00,,,0.13,,2013-03-25 07:32:00,
2013-03-25 02:42:00,30.0,-99.9,-100.00,NNW,332,11.0,17.0,-999,0.00,,,0.13,,2013-03-25 07:42:00,
2013-03-25 02:53:00,30.0,-99.9,-100.00,NNW,332,11.0,17.0,-999,0.00,,,0.13,,2013-03-25 07:53:00,
2013-03-25 03:03:00,30.0,-99.9,-100.00,NNW,332,11.0,17.0,-999,0.00,,,0.13,,2013-03-25 08:03:00,
2013-03-25 03:12:00,30.0,-99.9,-100.00,NNW,327,10.0,15.0,-999,0.00,,,0.13,,2013-03-25 08:12:00,
2013-03-25 03:23:00,30.0,-99.9,-100.00,NNW,327,10.0,15.0,-999,0.00,,,0.13,,2013-03-25 08:23:00,
2013-03-25 03:32:00,30.0,-99.9,-100.00,NNW,327,10.0,15.0,-999,0.00,,,0.13,,2013-03-25 08:32:00,
2013-03-25 03:43:00,30.0,-99.9,-100.00,NNW,329,12.0,15.0,-999,0.00,,,0.13,,2013-03-25 08:43:00,
2013-03-25 03:53:00,30.0,-99.9,-100.00,NNW,329,12.0,15.0,-999,0.00,,,0.13,,2013-03-25 08:53:00,
2013-03-25 04:02:00,30.0,-99.9,-100.00,NNW,329,12.0,15.0,-999,0.00,,,0.13,,2013-03-25 09:02:00,
2013-03-25 04:13:00,30.0,-99.9,-100.00,NW,324,12.0,19.0,-999,0.00,,,0.13,,2013-03-25 09:13:00,
2013-03-25 04:22:00,30.0,-99.9,-100.00,NW,324,12.0,19.0,-999,0.00,,,0.13,,2013-03-25 09:22:00,
2013-03-25 04:33:00,30.0,-99.9,-100.00,NW,324,12.0,19.0,-999,0.00,,,0.13,,2013-03-25 09:33:00,
2013-03-25 04:43:00,31.0,-99.9,-100.00,NW,314,14.0,17.0,-999,0.00,,,0.13,,2013-03-25 09:43:00,
2013-03-25 04:53:00,31.0,-99.9,-100.00,NW,314,14.0,17.0,-999,0.00,,,0.13,,2013-03-25 09:53:00,
2013-03-25 05:03:00,31.0,-99.9,-100.00,NW,314,14.0,17.0,-999,0.00,,,0.13,,2013-03-25 10:03:00,
2013-03-25 05:12:00,31.0,-99.9,-100.00,NNW,333,11.0,14.0,-999,0.00,,,0.13,,2013-03-25 10:12:00,
2013-03-25 05:23:00,31.0,-99.9,-100.00,NNW,333,11.0,14.0,-999,0.00,,,0.13,,2013-03-25 10:23:00,
2013-03-25 05:33:00,31.0,-99.9,-100.00,NNW,333,11.0,14.0,-999,0.00,,,0.13,,2013-03-25 10:33:00,
2013-03-25 05:43:00,31.0,-99.9,-100.00,NW,323,12.0,18.0,-999,0.00,,,0.13,,2013-03-25 10:43:00,
2013-03-25 05:54:00,31.0,-99.9,-100.00,NW,323,12.0,18.0,-999,0.00,,,0.13,,2013-03-25 10:54:00,
2013-03-25 06:03:00,31.0,-99.9,-100.00,NW,323,12.0,18.0,-999,0.00,,,0.13,,2013-03-25 11:03:00,
2013-03-25 06:12:00,31.0,-99.9,-100.00,NW,319,13.0,16.0,-999,0.00,,,0.13,,2013-03-25 11:12:00,
2013-03-25 06:23:00,31.0,-99.9,-100.00,NW,319,13.0,16.0,-999,0.00,,,0.13,,2013-03-25 11:23:00,
2013-03-25 06:33:00,31.0,-99.9,-100.00,NW,319,13.0,16.0,-999,0.00,,,0.13,,2013-03-25 11:33:00,
2013-03-25 06:43:00,31.0,-99.9,-100.00,NW,313,13.0,15.0,-999,0.00,,,0.13,,2013-03-25 11:43:00,
2013-03-25 06:53:00,31.0,-99.9,-100.00,NW,313,13.0,15.0,-999,0.00,,,0.13,,2013-03-25 11:53:00,
2013-03-25 07:03:00,31.0,-99.9,-100.00,NW,313,13.0,15.0,-999,0.00,,,0.13,,2013-03-25 12:03:00,
2013-03-25 07:13:00,31.0,-99.9,-100.00,NNW,327,11.0,14.0,-999,0.00,,,0.13,,2013-03-25 12:13:00,
2013-03-25 07:24:00,31.0,-99.9,-100.00,NNW,327,11.0,14.0,-999,0.00,,,0.13,,2013-03-25 12:24:00,
2013-03-25 07:33:00,31.0,-99.9,-100.00,NNW,327,11.0,14.0,-999,0.00,,,0.13,,2013-03-25 12:33:00,
2013-03-25 07:43:00,31.0,-99.9,-100.00,NNW,329,12.0,17.0,-999,0.00,,,0.13,,2013-03-25 12:43:00,
2013-03-25 07:54:00,31.0,-99.9,-100.00,NNW,329,12.0,17.0,-999,0.00,,,0.13,,2013-03-25 12:54:00,
2013-03-25 08:03:00,31.0,-99.9,-100.00,NNW,329,12.0,17.0,-999,0.00,,,0.13,,2013-03-25 13:03:00,
2013-03-25 08:13:00,31.0,-99.9,-100.00,NNW,331,9.0,12.0,-999,0.00,,,0.13,,2013-03-25 13:13:00,
2013-03-25 08:23:00,31.0,-99.9,-100.00,NNW,331,9.0,12.0,-999,0.00,,,0.13,,2013-03-25 13:23:00,
2013-03-25 08:32:00,31.0,-99.9,-100.00,NNW,331,9.0,12.0,-999,0.00,,,0.13,,2013-03-25 13:32:00,
2013-03-25 08:40:00,31.0,-99.9,-100.00,NNW,338,11.0,15.0,-999,0.00,,,0.13,,2013-03-25 13:40:00,
2013-03-25 08:43:00,31.0,-99.9,-100.00,NNW,337,10.0,14.0,-999,0.00,,,0.13,,2013-03-25 13:43:00,
2013-03-25 08:53:00,31.0,-99.9,-100.00,NNW,337,10.0,14.0,-999,0.00,,,0.13,,2013-03-25 13:53:00,
2013-03-25 09:03:00,31.0,-99.9,-100.00,NNW,337,10.0,14.0,-999,0.00,,,0.13,,2013-03-25 14:03:00,
2013-03-25 09:13:00,31.0,-99.9,-100.00,NNW,338,11.0,15.0,-999,0.00,,,0.13,,2013-03-25 14:13:00,
2013-03-25 09:23:00,31.0,-99.9,-100.00,NNW,338,11.0,15.0,-999,0.00,,,0.13,,2013-03-25 14:23:00,
2013-03-25 09:33:00,31.0,-99.9,-100.00,NNW,338,11.0,15.0,-999,0.00,,,0.13,,2013-03-25 14:33:00,
2013-03-25 10:10:00,32.0,-99.9,-100.00,NNW,337,9.0,14.0,-999,0.00,,,0.13,,2013-03-25 15:10:00,
2013-03-25 10:13:00,31.0,-99.9,-100.00,NNW,333,10.0,12.0,-999,0.00,,,0.13,,2013-03-25 15:13:00,
2013-03-25 10:23:00,31.0,-99.9,-100.00,NNW,333,10.0,12.0,-999,0.00,,,0.13,,2013-03-25 15:23:00,
2013-03-25 10:33:00,31.0,-99.9,-100.00,NNW,333,10.0,12.0,-999,0.00,,,0.13,,2013-03-25 15:33:00,
2013-03-25 10:43:00,32.0,-99.9,-100.00,NNW,337,9.0,14.0,-999,0.00,,,0.13,,2013-03-25 15:43:00,
2013-03-25 10:54:00,32.0,-99.9,-100.00,NNW,337,9.0,14.0,-999,0.00,,,0.13,,2013-03-25 15:54:00,
2013-03-25 11:04:00,32.0,-99.9,-100.00,NNW,337,9.0,14.0,-999,0.00,,,0.13,,2013-03-25 16:04:00,
2013-03-25 11:44:00,32.0,-99.9,-100.00,NW,324,13.0,16.0,-999,0.00,,,0.13,,2013-03-25 16:44:00,
2013-03-25 11:53:00,32.0,-99.9,-100.00,NW,324,13.0,16.0,-999,0.00,,,0.13,,2013-03-25 16:53:00,
2013-03-25 12:03:00,32.0,-99.9,-100.00,NW,324,13.0,16.0,-999,0.00,,,0.13,,2013-03-25 17:03:00,
2013-03-25 12:13:00,32.0,-99.9,-100.00,NW,326,13.0,16.0,-999,0.00,,,0.13,,2013-03-25 17:13:00,
2013-03-25 12:24:00,32.0,-99.9,-100.00,NW,326,13.0,16.0,-999,0.00,,,0.13,,2013-03-25 17:24:00,
2013-03-25 12:33:00,32.0,-99.9,-100.00,NW,326,13.0,16.0,-999,0.00,,,0.13,,2013-03-25 17:33:00,
2013-03-25 12:43:00,32.0,-99.9,-100.00,NNW,332,13.0,17.0,-999,0.00,,,0.13,,2013-03-25 17:43:00,
2013-03-25 12:53:00,32.0,-99.9,-100.00,NNW,332,13.0,17.0,-999,0.00,,,0.13,,2013-03-25 17:53:00,
2013-03-25 13:04:00,32.0,-99.9,-100.00,NNW,332,13.0,17.0,-999,0.00,,,0.13,,2013-03-25 18:04:00,
2013-03-25 13:13:00,33.0,-99.9,-100.00,NW,322,15.0,17.0,-999,0.00,,,0.13,,2013-03-25 18:13:00,
2013-03-25 13:23:00,33.0,-99.9,-100.00,NW,322,15.0,17.0,-999,0.00,,,0.13,,2013-03-25 18:23:00,
2013-03-25 13:33:00,33.0,-99.9,-100.00,NW,322,15.0,17.0,-999,0.00,,,0.13,,2013-03-25 18:33:00,
2013-03-25 13:43:00,33.0,-99.9,-100.00,NW,314,18.0,20.0,-999,0.00,,,0.13,,2013-03-25 18:43:00,
2013-03-25 13:53:00,33.0,-99.9,-100.00,NW,314,18.0,20.0,-999,0.00,,,0.13,,2013-03-25 18:53:00,
2013-03-25 14:03:00,33.0,-99.9,-100.00,NW,314,18.0,20.0,-999,0.00,,,0.13,,2013-03-25 19:03:00,
2013-03-25 14:13:00,33.0,-99.9,-100.00,NW,323,15.0,16.0,-999,0.00,,,0.12,,2013-03-25 19:13:00,
2013-03-25 14:23:00,33.0,-99.9,-100.00,NW,323,15.0,16.0,-999,0.00,,,0.12,,2013-03-25 19:23:00,
2013-03-25 14:33:00,33.0,-99.9,-100.00,NW,323,15.0,16.0,-999,0.00,,,0.12,,2013-03-25 19:33:00,
2013-03-25 14:43:00,34.0,-99.9,-100.00,NW,323,15.0,19.0,-999,0.00,,,0.08,,2013-03-25 19:43:00,
2013-03-25 14:53:00,34.0,-99.9,-100.00,NW,323,15.0,19.0,-999,0.00,,,0.08,,2013-03-25 19:53:00,
2013-03-25 15:02:00,34.0,-99.9,-100.00,NW,323,15.0,19.0,-999,0.00,,,0.08,,2013-03-25 20:02:00,
2013-03-25 15:12:00,34.0,-99.9,-100.00,NW,321,14.0,19.0,-999,0.00,,,0.04,,2013-03-25 20:12:00,
2013-03-25 15:22:00,34.0,-99.9,-100.00,NW,321,14.0,19.0,-999,0.00,,,0.04,,2013-03-25 20:22:00,
2013-03-25 15:32:00,34.0,-99.9,-100.00,NW,321,14.0,19.0,-999,0.00,,,0.04,,2013-03-25 20:32:00,
2013-03-25 15:43:00,35.0,-99.9,-100.00,NNW,333,12.0,18.0,-999,0.00,,,0.02,,2013-03-25 20:43:00,
2013-03-25 15:52:00,35.0,-99.9,-100.00,NNW,333,12.0,18.0,-999,0.00,,,0.02,,2013-03-25 20:52:00,
2013-03-25 16:03:00,35.0,-99.9,-100.00,NNW,333,12.0,18.0,-999,0.00,,,0.02,,2013-03-25 21:03:00,
2013-03-25 16:13:00,35.0,-99.9,-100.00,NNW,328,15.0,18.0,-999,0.00,,,0.01,,2013-03-25 21:13:00,
2013-03-25 16:23:00,35.0,-99.9,-100.00,NNW,328,15.0,18.0,-999,0.00,,,0.01,,2013-03-25 21:23:00,
2013-03-25 16:33:00,35.0,-99.9,-100.00,NNW,328,15.0,18.0,-999,0.00,,,0.01,,2013-03-25 21:33:00,
2013-03-25 16:43:00,35.0,-99.9,-100.00,NNW,329,12.0,15.0,-999,0.00,,,0.01,,2013-03-25 21:43:00,
2013-03-25 16:52:00,35.0,-99.9,-100.00,NNW,329,12.0,15.0,-999,0.00,,,0.01,,2013-03-25 21:52:00,
2013-03-25 17:04:00,35.0,-99.9,-100.00,NNW,329,12.0,15.0,-999,0.00,,,0.01,,2013-03-25 22:04:00,
2013-03-25 17:13:00,36.0,-99.9,-100.00,NNW,332,13.0,22.0,-999,0.00,,,0.01,,2013-03-25 22:13:00,
2013-03-25 17:24:00,36.0,-99.9,-100.00,NNW,332,13.0,22.0,-999,0.00,,,0.01,,2013-03-25 22:24:00,
2013-03-25 17:33:00,36.0,-99.9,-100.00,NNW,332,13.0,22.0,-999,0.00,,,0.01,,2013-03-25 22:33:00,
2013-03-25 17:43:00,36.0,-99.9,-100.00,NNW,327,15.0,18.0,-999,0.00,,,0.00,,2013-03-25 22:43:00,
2013-03-25 17:53:00,36.0,-99.9,-100.00,NNW,327,15.0,18.0,-999,0.00,,,0.00,,2013-03-25 22:53:00,
2013-03-25 18:03:00,36.0,-99.9,-100.00,NNW,327,15.0,18.0,-999,0.00,,,0.00,,2013-03-25 23:03:00,
2013-03-25 18:12:00,35.0,-99.9,-100.00,NNW,332,13.0,15.0,-999,0.00,,,0.00,,2013-03-25 23:12:00,
2013-03-25 18:23:00,35.0,-99.9,-100.00,NNW,332,13.0,15.0,-999,0.00,,,0.00,,2013-03-25 23:23:00,
2013-03-25 18:33:00,35.0,-99.9,-100.00,NNW,332,13.0,15.0,-999,0.00,,,0.00,,2013-03-25 23:33:00,
2013-03-25 18:40:00,35.0,-99.9,-100.00,NW,324,10.0,14.0,-999,0.00,,,0.00,,2013-03-25 23:40:00,
2013-03-25 18:43:00,35.0,-99.9,-100.00,NNW,332,12.0,18.0,-999,0.00,,,0.00,,2013-03-25 23:43:00,
2013-03-25 18:53:00,35.0,-99.9,-100.00,NNW,332,12.0,18.0,-999,0.00,,,0.00,,2013-03-25 23:53:00,
2013-03-25 19:02:00,35.0,-99.9,-100.00,NNW,332,12.0,18.0,-999,0.00,,,0.00,,2013-03-26 00:02:00,
2013-03-25 19:12:00,35.0,-99.9,-100.00,NW,324,10.0,14.0,-999,0.00,,,0.00,,2013-03-26 00:12:00,
2013-03-25 19:23:00,35.0,-99.9,-100.00,NW,324,10.0,14.0,-999,0.00,,,0.00,,2013-03-26 00:23:00,
2013-03-25 19:33:00,35.0,-99.9,-100.00,NW,324,10.0,14.0,-999,0.00,,,0.00,,2013-03-26 00:33:00,
2013-03-25 20:12:00,35.0,-99.9,-100.00,NNW,329,8.0,11.0,-999,0.00,,,0.00,,2013-03-26 01:12:00,
2013-03-25 20:23:00,35.0,-99.9,-100.00,NNW,329,8.0,11.0,-999,0.00,,,0.00,,2013-03-26 01:23:00,
2013-03-25 20:33:00,35.0,-99.9,-100.00,NNW,329,8.0,11.0,-999,0.00,,,0.00,,2013-03-26 01:33:00,
2013-03-25 20:42:00,35.0,-99.9,-100.00,NNW,335,8.0,12.0,-999,0.00,,,0.00,,2013-03-26 01:42:00,
2013-03-25 20:53:00,35.0,-99.9,-100.00,NNW,335,8.0,12.0,-999,0.00,,,0.00,,2013-03-26 01:53:00,
2013-03-25 21:02:00,35.0,-99.9,-100.00,NNW,335,8.0,12.0,-999,0.00,,,0.00,,2013-03-26 02:02:00,
2013-03-25 21:12:00,35.0,-99.9,-100.00,NNW,336,7.0,9.0,-999,0.00,,,0.00,,2013-03-26 02:12:00,
2013-03-25 21:23:00,35.0,-99.9,-100.00,NNW,336,7.0,9.0,-999,0.00,,,0.00,,2013-03-26 02:23:00,
2013-03-25 21:32:00,35.0,-99.9,-100.00,NNW,336,7.0,9.0,-999,0.00,,,0.00,,2013-03-26 02:32:00,
2013-03-25 21:43:00,35.0,-99.9,-100.00,NNW,336,4.0,5.0,-999,0.00,,,0.00,,2013-03-26 02:43:00,
2013-03-25 21:53:00,35.0,-99.9,-100.00,NNW,336,4.0,5.0,-999,0.00,,,0.00,,2013-03-26 02:53:00,
2013-03-25 22:02:00,35.0,-99.9,-100.00,NNW,336,4.0,5.0,-999,0.00,,,0.00,,2013-03-26 03:02:00,
2013-03-25 22:13:00,35.0,-99.9,-100.00,NNW,329,4.0,5.0,-999,0.00,,,0.00,,2013-03-26 03:13:00,
2013-03-25 22:22:00,35.0,-99.9,-100.00,NNW,329,4.0,5.0,-999,0.00,,,0.00,,2013-03-26 03:22:00,
2013-03-25 22:34:00,35.0,-99.9,-100.00,NNW,329,4.0,5.0,-999,0.00,,,0.00,,2013-03-26 03:34:00,
2013-03-25 22:43:00,34.0,-99.9,-100.00,NW,325,3.0,4.0,-999,0.00,,,0.00,,2013-03-26 03:43:00,
2013-03-25 22:53:00,34.0,-99.9,-100.00,NW,325,3.0,4.0,-999,0.00,,,0.00,,2013-03-26 03:53:00,
2013-03-25 23:04:00,34.0,-99.9,-100.00,NW,325,3.0,4.0,-999,0.00,,,0.00,,2013-03-26 04:04:00,
2013-03-25 23:13:00,34.0,-99.9,-100.00,NNW,328,5.0,7.0,-999,0.00,,,0.00,,2013-03-26 04:13:00,
2013-03-25 23:23:00,34.0,-99.9,-100.00,NNW,328,5.0,7.0,-999,0.00,,,0.00,,2013-03-26 04:23:00,
2013-03-25 23:33:00,34.0,-99.9,-100.00,NNW,328,5.0,7.0,-999,0.00,,,0.00,,2013-03-26 04:33:00,
2013-03-25 23:43:00,35.0,-99.9,-100.00,WNW,293,11.0,14.0,-999,0.00,,,0.00,,2013-03-26 04:43:00,
2013-03-25 23:53:00,35.0,-99.9,-100.00,WNW,293,11.0,14.0,-999,0.00,,,0.00,,2013-03-26 04:53:00,